Latest Coastal Weather Observations for Low Rocky Point

IDT60701

Issued at 10:15 pm EST Saturday 30 August 2014 (issued every 10 minutes, with the page automatically refreshed every 10 minutes)

About coastal observations | Map of coastal stations | Coastal observations for TAS | Marine services | Other Formats
Station Details ID: 097080 Name: LOW ROCKY POINT Lat: -42.98 Lon: 145.50 Height: 34.0 m
Data from the previous 72 hours. | See also: Recent months at Low Rocky Point
Date/Time
EST
Temp

°C
Wind Pressure Rain
since 9am
mm
Weather Cloud Vis
km
Sea
Height
m
Swell
Dir
 
Speed
knots
Gust
knots
hPa Trend Height
m
Period
s
Dir
30/10:00pm 9.3 NNE 12 13 1019.6 - 0.0 - - - - - - -
30/09:30pm 9.4 NE 11 11 1019.9 - 0.0 - - - - - - -
30/09:00pm 9.2 NE 9 10 1020.4 - 0.0 - - - - - - -
30/08:30pm 9.6 ENE 8 8 1020.7 - 0.0 - - - - - - -
30/08:00pm 9.7 ENE 6 7 1021.0 - 0.0 - - - - - - -
30/07:30pm 9.8 E 5 7 1021.0 - 0.0 - - - - - - -
30/07:00pm 10.2 E 5 6 1021.1 - 0.0 - - - - - - -
30/06:30pm 11.1 ESE 3 4 1021.3 - 0.0 - - - - - - -
30/06:00pm 11.1 CALM 0 0 1021.4 - 0.0 - - - - - - -
30/05:30pm 13.1 CALM 0 0 1021.4 - 0.0 - - - - - - -
30/05:00pm 14.1 WNW 3 4 1021.6 - 0.0 - - - - - - -
30/04:30pm 14.3 WNW 6 7 1021.9 - 0.0 - - - - - - -
30/04:00pm 14.9 WNW 8 9 1022.1 - 0.0 - - - - - - -
30/03:30pm 14.6 W 7 8 1022.5 - 0.0 - - - - - - -
30/03:00pm 15.3 WNW 9 11 1022.6 - 0.0 - - - - - - -
30/02:30pm 15.1 NW 12 13 1022.8 - 0.0 - - - - - - -
30/02:00pm 14.9 WNW 13 16 1023.4 - 0.0 - - - - - - -
30/01:30pm 14.7 WNW 15 17 1023.8 - 0.0 - - - - - - -
30/01:00pm 14.8 NW 15 18 1024.2 - 0.0 - - - - - - -
30/12:30pm 15.3 NW 11 14 1024.5 - 0.0 - - - - - - -
30/12:00pm 14.8 NW 10 13 1025.0 - 0.0 - - - - - - -
30/11:30am 14.5 NW 10 13 1025.3 - 0.0 - - - - - - -
30/11:00am 14.2 NW 9 11 1025.6 - 0.0 - - - - - - -
30/10:30am 14.7 NW 9 12 1026.1 - 0.0 - - - - - - -
30/10:00am 14.0 NW 7 9 1026.6 - 0.0 - - - - - - -
30/09:30am 13.6 NNW 6 8 1026.9 - 0.0 - - - - - - -
30/09:00am 12.3 NNW 7 8 1027.2 - 0.0 - - - - - - -
30/08:30am 11.1 N 7 8 1027.5 - 0.0 - - - - - - -
30/08:00am 9.7 N 8 9 1027.6 - 0.0 - - - - - - -
30/07:30am 8.5 N 7 9 1027.6 - 0.0 - - - - - - -
30/07:00am 8.2 N 8 9 1027.5 - 0.0 - - - - - - -
30/06:30am 8.3 N 8 10 1027.2 - 0.0 - - - - - - -
30/06:00am 8.7 N 9 11 1027.1 - 0.0 - - - - - - -
30/05:30am 9.3 N 9 11 1027.1 - 0.0 - - - - - - -
30/05:00am 8.8 N 10 12 1027.2 - 0.0 - - - - - - -
30/04:30am 8.4 N 11 13 1027.4 - 0.0 - - - - - - -
30/04:00am 8.4 N 11 13 1027.5 - 0.0 - - - - - - -
30/03:30am 8.7 N 11 12 1027.5 - 0.0 - - - - - - -
30/03:00am 8.8 N 9 11 1027.7 - 0.0 - - - - - - -
30/02:30am 9.2 N 10 11 1027.9 - 0.0 - - - - - - -
30/02:00am 9.2 N 10 12 1028.2 - 0.0 - - - - - - -
30/01:30am 9.3 N 10 11 1028.3 - 0.0 - - - - - - -
30/01:00am 9.2 N 9 11 1028.5 - 0.0 - - - - - - -
30/12:30am 9.1 N 9 11 1028.6 - 0.0 - - - - - - -
30/12:00am 9.5 N 10 11 1028.7 - 0.0 - - - - - - -
 
Date/Time
EST
Temp

°C
Wind Pressure Rain
since 9am
mm
Weather Cloud Vis
km
Sea
Height
m
Swell
Dir
 
Speed
knots
Gust
knots
hPa Trend Height
m
Period
s
Dir
29/11:30pm 9.4 N 9 11 1028.6 - 0.0 - - - - - - -
29/11:00pm 9.6 N 9 10 1028.7 - 0.0 - - - - - - -
29/10:30pm 9.3 N 8 10 1028.9 - 0.0 - - - - - - -
29/10:00pm 9.8 N 9 9 1028.8 - 0.0 - - - - - - -
29/09:30pm 10.1 N 7 8 1028.9 - 0.0 - - - - - - -
29/09:00pm 10.3 N 8 8 1028.9 - 0.0 - - - - - - -
29/08:30pm 10.1 NNW 6 7 1028.9 - 0.0 - - - - - - -
29/08:00pm 10.5 NNW 6 7 1028.8 - 0.0 - - - - - - -
29/07:30pm 11.3 NNW 6 8 1028.8 - 0.0 - - - - - - -
29/07:00pm 11.4 NNW 6 7 1028.8 - 0.0 - - - - - - -
29/06:30pm 12.0 NNW 7 10 1028.7 - 0.0 - - - - - - -
29/06:00pm 12.3 NW 11 12 1028.6 - 0.0 - - - - - - -
29/05:30pm 12.9 NW 11 13 1028.4 - 0.0 - - - - - - -
29/05:00pm 13.3 NW 12 14 1028.3 - 0.0 - - - - - - -
29/04:30pm 13.9 NW 12 14 1028.3 - 0.0 - - - - - - -
29/04:00pm 14.4 NW 12 14 1028.3 - 0.0 - - - - - - -
29/03:30pm 14.5 NW 12 15 1028.4 - 0.0 - - - - - - -
29/03:00pm 14.8 NW 13 15 1028.4 - 0.0 - - - - - - -
29/02:30pm 15.0 NW 14 16 1028.4 - 0.0 - - - - - - -
29/02:00pm 14.9 NW 14 17 1028.7 - 0.0 - - - - - - -
29/01:30pm 15.3 NW 14 16 1028.7 - 0.0 - - - - - - -
29/01:00pm 15.3 NW 14 17 1028.8 - 0.0 - - - - - - -
29/12:30pm 15.2 NW 14 16 1029.0 - 0.0 - - - - - - -
29/12:00pm 15.3 NW 13 16 1029.4 - 0.0 - - - - - - -
29/11:30am 15.2 NW 14 17 1029.7 - 0.0 - - - - - - -
29/11:00am 15.0 NW 12 16 1029.5 - 0.0 - - - - - - -
29/10:30am 14.8 NNW 10 11 1029.5 - 0.0 - - - - - - -
29/10:00am 14.4 N 11 14 1029.6 - 0.0 - - - - - - -
29/09:30am 13.6 N 11 15 1029.5 - 0.0 - - - - - - -
29/09:00am 12.2 N 9 13 1029.5 - 0.0 - - - - - - -
29/08:30am 10.7 NNE 11 14 1029.2 - 0.0 - - - - - - -
29/08:00am 9.5 N 13 16 1029.0 - 0.0 - - - - - - -
29/07:30am 8.5 N 13 15 1028.6 - 0.0 - - - - - - -
29/07:00am 8.0 N 12 14 1028.5 - 0.0 - - - - - - -
29/06:30am 8.1 N 13 15 1028.2 - 0.0 - - - - - - -
29/06:00am 8.2 N 12 14 1028.0 - 0.0 - - - - - - -
29/05:30am 8.5 N 11 13 1027.9 - 0.0 - - - - - - -
29/05:00am 8.7 N 11 14 1028.0 - 0.0 - - - - - - -
29/04:30am 8.7 N 11 13 1028.0 - 0.0 - - - - - - -
29/04:00am 9.0 N 9 12 1027.9 - 0.0 - - - - - - -
29/03:30am 9.1 N 9 10 1027.8 - 0.0 - - - - - - -
29/03:00am 9.4 N 8 10 1027.7 - 0.0 - - - - - - -
29/02:30am 10.0 N 10 11 1027.7 - 0.0 - - - - - - -
29/02:00am 9.9 N 9 11 1027.9 - 0.0 - - - - - - -
29/01:30am 10.2 N 10 11 1028.1 - 0.0 - - - - - - -
29/01:00am 10.4 N 9 11 1028.2 - 0.0 - - - - - - -
29/12:30am 10.8 N 8 10 1028.3 - 0.0 - - - - - - -
29/12:00am 10.9 N 8 10 1028.2 - 0.0 - - - - - - -
 
Date/Time
EST
Temp

°C
Wind Pressure Rain
since 9am
mm
Weather Cloud Vis
km
Sea
Height
m
Swell
Dir
 
Speed
knots
Gust
knots
hPa Trend Height
m
Period
s
Dir
28/11:30pm 11.0 N 9 11 1028.1 - 0.0 - - - - - - -
28/11:00pm 10.9 N 10 12 1028.0 - 0.0 - - - - - - -
28/10:30pm 11.0 N 9 11 1027.9 - 0.0 - - - - - - -
28/10:00pm 11.1 N 9 12 1028.0 - 0.0 - - - - - - -
28/09:30pm 11.0 N 10 11 1028.0 - 0.0 - - - - - - -
28/09:00pm 10.9 N 10 11 1028.0 - 0.0 - - - - - - -
28/08:30pm 10.8 NNE 9 11 1028.0 - 0.0 - - - - - - -
28/08:00pm 11.0 NNE 8 9 1027.8 - 0.0 - - - - - - -
28/07:30pm 11.1 NNE 7 9 1027.7 - 0.0 - - - - - - -
28/07:00pm 11.5 N 5 6 1027.7 - 0.0 - - - - - - -
28/06:30pm 12.4 NW 6 8 1027.8 - 0.0 - - - - - - -
28/06:00pm 12.6 NW 5 6 1027.6 - 0.0 - - - - - - -
28/05:30pm 12.7 NW 7 8 1027.4 - 0.0 - - - - - - -
28/05:00pm 13.1 WNW 9 11 1027.1 - 0.0 - - - - - - -
28/04:30pm 13.5 WNW 9 11 1026.9 - 0.0 - - - - - - -
28/04:00pm 14.3 WNW 10 11 1026.8 - 0.0 - - - - - - -
28/03:30pm 14.2 NW 11 14 1026.7 - 0.0 - - - - - - -
28/03:00pm 15.4 NW 11 14 1026.7 - 0.0 - - - - - - -
28/02:30pm 15.3 NW 13 16 1026.7 - 0.0 - - - - - - -
28/02:00pm 15.3 NW 13 16 1026.9 - 0.0 - - - - - - -
28/01:30pm 15.7 NW 13 16 1027.2 - 0.0 - - - - - - -
28/01:00pm 15.2 NW 15 19 1027.5 - 0.0 - - - - - - -
28/12:30pm 14.6 NW 15 19 1027.8 - 0.0 - - - - - - -
28/12:00pm 13.9 NW 14 16 1028.1 - 0.0 - - - - - - -
28/11:30am 14.5 NW 9 11 1028.5 - 0.0 - - - - - - -
28/11:00am 13.7 NNW 8 12 1028.6 - 0.0 - - - - - - -
28/10:30am 12.7 N 8 11 1028.8 - 0.0 - - - - - - -
28/10:00am 12.0 N 9 14 1028.8 - 0.0 - - - - - - -
28/09:30am 11.4 N 8 11 1029.0 - 0.0 - - - - - - -
28/09:00am 10.9 N 10 13 1028.9 - 0.6 - - - - - - -
28/08:30am 10.2 NNE 10 12 1028.7 - 0.6 - - - - - - -
28/08:00am 10.1 NNE 10 11 1028.8 - 0.6 - - - - - - -
28/07:30am 9.8 NNE 10 12 1028.5 - 0.6 - - - - - - -
28/07:00am 9.8 N 10 12 1028.3 - 0.6 - - - - - - -
28/06:30am 10.3 N 10 13 1028.0 - 0.4 - - - - - - -
28/06:00am 10.1 N 9 11 1028.1 - 0.4 - - - - - - -
28/05:30am 10.2 NNE 7 9 1027.9 - 0.4 - - - - - - -
28/05:00am 10.9 N 6 8 1028.0 - 0.4 - - - - - - -
28/04:30am 11.0 N 5 6 1027.8 - 0.4 - - - - - - -
28/04:00am 11.0 N 5 6 1028.0 - 0.4 - - - - - - -
28/03:30am 10.9 N 6 7 1027.9 - 0.4 - - - - - - -
28/03:00am 11.1 N 6 6 1027.9 - 0.4 - - - - - - -
28/02:30am 11.1 N 6 7 1027.9 - 0.4 - - - - - - -
28/02:00am 10.7 N 7 7 1028.2 - 0.4 - - - - - - -
28/01:30am 10.7 NNW 6 8 1028.1 - 0.4 - - - - - - -
28/01:00am 10.9 N 7 9 1028.2 - 0.4 - - - - - - -
28/12:30am 11.1 N 6 8 1028.2 - 0.4 - - - - - - -
28/12:00am 11.5 N 8 10 1028.4 - 0.4 - - - - - - -
 
Date/Time
EST
Temp

°C
Wind Pressure Rain
since 9am
mm
Weather Cloud Vis
km
Sea
Height
m
Swell
Dir
 
Speed
knots
Gust
knots
hPa Trend Height
m
Period
s
Dir
27/11:30pm 11.3 N 6 7 1028.4 - 0.4 - - - - - - -
27/11:00pm 11.7 N 8 10 1028.5 - 0.4 - - - - - - -
27/10:30pm 11.7 N 10 11 1028.3 - 0.2 - - - - - - -

Other Formats:

Comma delimited format used in spreadsheet applications
http://www.bom.gov.au/fwo/IDT60701/IDT60701.95961.axf

JavaScript Object Notation format (JSON) in row-major order
http://www.bom.gov.au/fwo/IDT60701/IDT60701.95961.json